sensor_id;sensor_type;location;lat;lon;timestamp;P1;durP1;ratioP1;P2;durP2;ratioP2
50102;SDS011;35993;52.604;10.078;2023-01-30T00:01:01;30.30;;;13.43;;
50102;SDS011;35993;52.604;10.078;2023-01-30T00:03:29;27.80;;;12.80;;
50102;SDS011;35993;52.604;10.078;2023-01-30T00:05:54;32.60;;;14.45;;
50102;SDS011;35993;52.604;10.078;2023-01-30T00:08:20;35.83;;;13.80;;
50102;SDS011;35993;52.604;10.078;2023-01-30T00:10:46;25.80;;;11.77;;
50102;SDS011;35993;52.604;10.078;2023-01-30T00:13:12;27.93;;;14.37;;
50102;SDS011;35993;52.604;10.078;2023-01-30T00:15:39;29.90;;;14.37;;
50102;SDS011;35993;52.604;10.078;2023-01-30T00:18:05;28.50;;;12.03;;
50102;SDS011;35993;52.604;10.078;2023-01-30T00:20:31;25.23;;;12.53;;
50102;SDS011;35993;52.604;10.078;2023-01-30T00:22:57;31.08;;;13.70;;
50102;SDS011;35993;52.604;10.078;2023-01-30T00:25:23;32.88;;;13.18;;
50102;SDS011;35993;52.604;10.078;2023-01-30T00:27:50;29.63;;;13.63;;
50102;SDS011;35993;52.604;10.078;2023-01-30T00:30:16;29.30;;;13.33;;
50102;SDS011;35993;52.604;10.078;2023-01-30T00:32:41;30.23;;;13.53;;
50102;SDS011;35993;52.604;10.078;2023-01-30T00:35:07;29.83;;;14.00;;
50102;SDS011;35993;52.604;10.078;2023-01-30T00:37:33;33.43;;;14.03;;
50102;SDS011;35993;52.604;10.078;2023-01-30T00:39:58;31.70;;;13.53;;
50102;SDS011;35993;52.604;10.078;2023-01-30T00:42:25;29.20;;;13.00;;
50102;SDS011;35993;52.604;10.078;2023-01-30T00:45:10;29.63;;;13.03;;
50102;SDS011;35993;52.604;10.078;2023-01-30T00:47:55;33.43;;;12.37;;
50102;SDS011;35993;52.604;10.078;2023-01-30T00:50:21;29.30;;;13.83;;
50102;SDS011;35993;52.604;10.078;2023-01-30T00:52:46;31.33;;;13.03;;
50102;SDS011;35993;52.604;10.078;2023-01-30T00:55:12;27.03;;;12.47;;
50102;SDS011;35993;52.604;10.078;2023-01-30T00:57:39;28.40;;;12.57;;
50102;SDS011;35993;52.604;10.078;2023-01-30T01:00:06;30.20;;;13.53;;
50102;SDS011;35993;52.604;10.078;2023-01-30T01:02:33;30.73;;;13.50;;
50102;SDS011;35993;52.604;10.078;2023-01-30T01:04:59;34.40;;;14.20;;
50102;SDS011;35993;52.604;10.078;2023-01-30T01:07:25;30.60;;;12.37;;
50102;SDS011;35993;52.604;10.078;2023-01-30T01:09:51;30.58;;;14.35;;
50102;SDS011;35993;52.604;10.078;2023-01-30T01:12:17;31.93;;;13.73;;
50102;SDS011;35993;52.604;10.078;2023-01-30T01:14:43;29.97;;;14.63;;
50102;SDS011;35993;52.604;10.078;2023-01-30T01:17:08;28.40;;;13.53;;
50102;SDS011;35993;52.604;10.078;2023-01-30T01:19:34;34.00;;;14.30;;
50102;SDS011;35993;52.604;10.078;2023-01-30T01:22:00;31.90;;;14.27;;
50102;SDS011;35993;52.604;10.078;2023-01-30T01:24:25;30.47;;;13.67;;
50102;SDS011;35993;52.604;10.078;2023-01-30T01:26:52;31.35;;;13.18;;
50102;SDS011;35993;52.604;10.078;2023-01-30T01:29:17;31.77;;;13.65;;
50102;SDS011;35993;52.604;10.078;2023-01-30T01:31:43;33.63;;;14.73;;
50102;SDS011;35993;52.604;10.078;2023-01-30T01:34:10;28.30;;;12.70;;
50102;SDS011;35993;52.604;10.078;2023-01-30T01:36:37;31.57;;;13.97;;
50102;SDS011;35993;52.604;10.078;2023-01-30T01:39:03;33.70;;;14.07;;
50102;SDS011;35993;52.604;10.078;2023-01-30T01:41:28;29.37;;;13.53;;
50102;SDS011;35993;52.604;10.078;2023-01-30T01:46:33;32.37;;;13.83;;
50102;SDS011;35993;52.604;10.078;2023-01-30T01:49:13;34.70;;;14.10;;
50102;SDS011;35993;52.604;10.078;2023-01-30T01:51:50;27.33;;;13.30;;
50102;SDS011;35993;52.604;10.078;2023-01-30T01:54:23;36.13;;;14.90;;
50102;SDS011;35993;52.604;10.078;2023-01-30T01:56:53;25.60;;;13.00;;
50102;SDS011;35993;52.604;10.078;2023-01-30T01:59:21;29.37;;;13.87;;
50102;SDS011;35993;52.604;10.078;2023-01-30T02:01:53;30.60;;;13.80;;
50102;SDS011;35993;52.604;10.078;2023-01-30T02:04:22;29.67;;;13.13;;
50102;SDS011;35993;52.604;10.078;2023-01-30T02:07:20;31.13;;;14.20;;
50102;SDS011;35993;52.604;10.078;2023-01-30T02:09:47;27.27;;;12.83;;
50102;SDS011;35993;52.604;10.078;2023-01-30T02:12:19;28.10;;;12.20;;
50102;SDS011;35993;52.604;10.078;2023-01-30T02:14:44;30.20;;;13.93;;
50102;SDS011;35993;52.604;10.078;2023-01-30T02:17:15;27.00;;;12.63;;
50102;SDS011;35993;52.604;10.078;2023-01-30T02:25:17;28.00;;;13.30;;
50102;SDS011;35993;52.604;10.078;2023-01-30T02:27:56;29.43;;;13.30;;
50102;SDS011;35993;52.604;10.078;2023-01-30T02:36:26;34.13;;;14.50;;
50102;SDS011;35993;52.604;10.078;2023-01-30T02:47:44;30.83;;;14.95;;
50102;SDS011;35993;52.604;10.078;2023-01-30T02:50:19;32.78;;;15.18;;
50102;SDS011;35993;52.604;10.078;2023-01-30T02:52:49;28.70;;;14.23;;
50102;SDS011;35993;52.604;10.078;2023-01-30T02:55:26;29.17;;;13.60;;
50102;SDS011;35993;52.604;10.078;2023-01-30T02:57:53;31.95;;;13.90;;
50102;SDS011;35993;52.604;10.078;2023-01-30T03:03:04;31.27;;;13.73;;
50102;SDS011;35993;52.604;10.078;2023-01-30T03:09:14;31.85;;;13.32;;
50102;SDS011;35993;52.604;10.078;2023-01-30T03:12:05;28.08;;;13.45;;
50102;SDS011;35993;52.604;10.078;2023-01-30T03:14:51;32.28;;;14.07;;
50102;SDS011;35993;52.604;10.078;2023-01-30T03:17:19;28.95;;;13.73;;
50102;SDS011;35993;52.604;10.078;2023-01-30T03:19:47;26.15;;;11.98;;
50102;SDS011;35993;52.604;10.078;2023-01-30T03:22:14;30.98;;;13.82;;
50102;SDS011;35993;52.604;10.078;2023-01-30T03:24:40;31.88;;;13.27;;
50102;SDS011;35993;52.604;10.078;2023-01-30T03:27:09;30.33;;;12.35;;
50102;SDS011;35993;52.604;10.078;2023-01-30T03:29:36;27.95;;;12.80;;
50102;SDS011;35993;52.604;10.078;2023-01-30T03:32:04;27.40;;;12.55;;
50102;SDS011;35993;52.604;10.078;2023-01-30T03:34:30;26.58;;;12.50;;
50102;SDS011;35993;52.604;10.078;2023-01-30T03:36:56;27.10;;;13.07;;
50102;SDS011;35993;52.604;10.078;2023-01-30T03:39:22;28.65;;;14.18;;
50102;SDS011;35993;52.604;10.078;2023-01-30T03:41:49;29.23;;;13.77;;
50102;SDS011;35993;52.604;10.078;2023-01-30T03:44:16;23.88;;;12.65;;
50102;SDS011;35993;52.604;10.078;2023-01-30T03:46:41;28.15;;;12.52;;
50102;SDS011;35993;52.604;10.078;2023-01-30T03:49:07;27.23;;;12.43;;
50102;SDS011;35993;52.604;10.078;2023-01-30T03:51:33;27.40;;;12.05;;
50102;SDS011;35993;52.604;10.078;2023-01-30T03:53:59;24.17;;;10.70;;
50102;SDS011;35993;52.604;10.078;2023-01-30T03:56:25;24.65;;;11.70;;
50102;SDS011;35993;52.604;10.078;2023-01-30T03:58:51;21.85;;;10.70;;
50102;SDS011;35993;52.604;10.078;2023-01-30T04:01:21;25.85;;;11.77;;
50102;SDS011;35993;52.604;10.078;2023-01-30T04:03:47;27.52;;;11.85;;
50102;SDS011;35993;52.604;10.078;2023-01-30T04:06:13;23.80;;;11.98;;
50102;SDS011;35993;52.604;10.078;2023-01-30T04:08:40;21.67;;;10.35;;
50102;SDS011;35993;52.604;10.078;2023-01-30T04:11:07;26.45;;;10.88;;
50102;SDS011;35993;52.604;10.078;2023-01-30T04:13:32;25.67;;;11.33;;
50102;SDS011;35993;52.604;10.078;2023-01-30T04:19:13;23.83;;;10.00;;
50102;SDS011;35993;52.604;10.078;2023-01-30T04:21:39;22.57;;;10.90;;
50102;SDS011;35993;52.604;10.078;2023-01-30T04:24:05;22.40;;;10.07;;
50102;SDS011;35993;52.604;10.078;2023-01-30T04:26:31;23.77;;;10.90;;
50102;SDS011;35993;52.604;10.078;2023-01-30T04:28:57;22.73;;;10.15;;
50102;SDS011;35993;52.604;10.078;2023-01-30T04:31:24;18.73;;;9.07;;
50102;SDS011;35993;52.604;10.078;2023-01-30T04:34:15;20.47;;;10.43;;
50102;SDS011;35993;52.604;10.078;2023-01-30T04:36:41;21.70;;;9.77;;
50102;SDS011;35993;52.604;10.078;2023-01-30T04:39:07;16.92;;;9.50;;
50102;SDS011;35993;52.604;10.078;2023-01-30T04:41:33;18.30;;;9.05;;
50102;SDS011;35993;52.604;10.078;2023-01-30T04:44:00;19.98;;;9.65;;
50102;SDS011;35993;52.604;10.078;2023-01-30T04:46:45;19.98;;;9.95;;
50102;SDS011;35993;52.604;10.078;2023-01-30T04:49:12;18.15;;;9.10;;
50102;SDS011;35993;52.604;10.078;2023-01-30T04:51:38;18.05;;;8.27;;
50102;SDS011;35993;52.604;10.078;2023-01-30T04:54:03;19.47;;;10.30;;
50102;SDS011;35993;52.604;10.078;2023-01-30T04:56:30;17.23;;;8.80;;
50102;SDS011;35993;52.604;10.078;2023-01-30T04:58:56;16.08;;;8.27;;
50102;SDS011;35993;52.604;10.078;2023-01-30T05:01:28;17.25;;;8.27;;
50102;SDS011;35993;52.604;10.078;2023-01-30T05:03:57;19.55;;;9.35;;
50102;SDS011;35993;52.604;10.078;2023-01-30T05:06:23;17.45;;;8.75;;
50102;SDS011;35993;52.604;10.078;2023-01-30T05:08:50;17.65;;;8.38;;
50102;SDS011;35993;52.604;10.078;2023-01-30T05:11:17;17.00;;;8.20;;
50102;SDS011;35993;52.604;10.078;2023-01-30T05:13:43;17.45;;;8.85;;
50102;SDS011;35993;52.604;10.078;2023-01-30T05:16:09;17.45;;;8.75;;
50102;SDS011;35993;52.604;10.078;2023-01-30T05:18:36;19.10;;;8.30;;
50102;SDS011;35993;52.604;10.078;2023-01-30T05:21:06;17.92;;;8.82;;
50102;SDS011;35993;52.604;10.078;2023-01-30T05:23:42;16.85;;;8.10;;
50102;SDS011;35993;52.604;10.078;2023-01-30T05:26:08;16.17;;;8.98;;
50102;SDS011;35993;52.604;10.078;2023-01-30T05:28:34;13.75;;;6.78;;
50102;SDS011;35993;52.604;10.078;2023-01-30T05:31:03;15.63;;;7.47;;
50102;SDS011;35993;52.604;10.078;2023-01-30T05:33:31;14.70;;;7.95;;
50102;SDS011;35993;52.604;10.078;2023-01-30T05:35:57;15.52;;;7.45;;
50102;SDS011;35993;52.604;10.078;2023-01-30T05:38:24;15.85;;;7.80;;
50102;SDS011;35993;52.604;10.078;2023-01-30T05:40:57;13.73;;;7.03;;
50102;SDS011;35993;52.604;10.078;2023-01-30T05:43:26;12.32;;;6.95;;
50102;SDS011;35993;52.604;10.078;2023-01-30T05:45:52;14.50;;;6.57;;
50102;SDS011;35993;52.604;10.078;2023-01-30T05:48:19;15.45;;;7.55;;
50102;SDS011;35993;52.604;10.078;2023-01-30T05:50:45;15.25;;;7.13;;
50102;SDS011;35993;52.604;10.078;2023-01-30T05:53:11;13.25;;;6.70;;
50102;SDS011;35993;52.604;10.078;2023-01-30T05:55:38;13.30;;;6.78;;
50102;SDS011;35993;52.604;10.078;2023-01-30T05:58:03;11.95;;;6.47;;
50102;SDS011;35993;52.604;10.078;2023-01-30T06:00:29;13.50;;;6.60;;
50102;SDS011;35993;52.604;10.078;2023-01-30T06:02:54;12.80;;;6.68;;
50102;SDS011;35993;52.604;10.078;2023-01-30T06:05:20;11.67;;;6.63;;
50102;SDS011;35993;52.604;10.078;2023-01-30T06:07:45;12.88;;;6.22;;
50102;SDS011;35993;52.604;10.078;2023-01-30T06:10:11;13.52;;;6.95;;
50102;SDS011;35993;52.604;10.078;2023-01-30T06:12:36;12.10;;;6.70;;
50102;SDS011;35993;52.604;10.078;2023-01-30T06:15:02;12.98;;;6.38;;
50102;SDS011;35993;52.604;10.078;2023-01-30T06:17:28;12.82;;;5.93;;
50102;SDS011;35993;52.604;10.078;2023-01-30T06:19:53;13.85;;;5.85;;
50102;SDS011;35993;52.604;10.078;2023-01-30T06:22:19;10.38;;;5.57;;
50102;SDS011;35993;52.604;10.078;2023-01-30T06:24:44;14.50;;;6.65;;
50102;SDS011;35993;52.604;10.078;2023-01-30T06:27:10;10.65;;;5.70;;
50102;SDS011;35993;52.604;10.078;2023-01-30T06:29:35;12.75;;;6.78;;
50102;SDS011;35993;52.604;10.078;2023-01-30T06:32:01;12.80;;;6.03;;
50102;SDS011;35993;52.604;10.078;2023-01-30T06:34:26;9.38;;;4.95;;
50102;SDS011;35993;52.604;10.078;2023-01-30T06:36:52;8.48;;;3.55;;
50102;SDS011;35993;52.604;10.078;2023-01-30T06:39:17;8.43;;;3.65;;
50102;SDS011;35993;52.604;10.078;2023-01-30T06:41:43;7.50;;;2.85;;
50102;SDS011;35993;52.604;10.078;2023-01-30T06:44:09;6.70;;;2.63;;
50102;SDS011;35993;52.604;10.078;2023-01-30T06:46:34;6.22;;;2.30;;
50102;SDS011;35993;52.604;10.078;2023-01-30T06:49:00;7.03;;;3.17;;
50102;SDS011;35993;52.604;10.078;2023-01-30T06:51:25;8.30;;;2.92;;
50102;SDS011;35993;52.604;10.078;2023-01-30T06:53:52;7.15;;;3.20;;
50102;SDS011;35993;52.604;10.078;2023-01-30T06:56:18;5.85;;;2.90;;
50102;SDS011;35993;52.604;10.078;2023-01-30T06:58:44;7.80;;;4.75;;
50102;SDS011;35993;52.604;10.078;2023-01-30T07:01:10;10.55;;;4.22;;
50102;SDS011;35993;52.604;10.078;2023-01-30T07:03:36;8.43;;;3.65;;
50102;SDS011;35993;52.604;10.078;2023-01-30T07:06:01;9.95;;;3.97;;
50102;SDS011;35993;52.604;10.078;2023-01-30T07:08:27;6.33;;;3.60;;
50102;SDS011;35993;52.604;10.078;2023-01-30T07:10:53;7.50;;;3.40;;
50102;SDS011;35993;52.604;10.078;2023-01-30T07:13:18;12.52;;;3.78;;
50102;SDS011;35993;52.604;10.078;2023-01-30T07:15:44;10.88;;;3.10;;
50102;SDS011;35993;52.604;10.078;2023-01-30T07:18:10;13.15;;;3.03;;
50102;SDS011;35993;52.604;10.078;2023-01-30T07:20:36;14.98;;;2.88;;
50102;SDS011;35993;52.604;10.078;2023-01-30T07:23:02;10.98;;;2.80;;
50102;SDS011;35993;52.604;10.078;2023-01-30T07:25:28;10.32;;;2.70;;
50102;SDS011;35993;52.604;10.078;2023-01-30T07:27:55;9.07;;;2.47;;
50102;SDS011;35993;52.604;10.078;2023-01-30T07:30:22;12.00;;;2.53;;
50102;SDS011;35993;52.604;10.078;2023-01-30T07:32:49;10.18;;;2.50;;
50102;SDS011;35993;52.604;10.078;2023-01-30T07:35:19;10.77;;;3.22;;
50102;SDS011;35993;52.604;10.078;2023-01-30T07:37:46;12.48;;;3.10;;
50102;SDS011;35993;52.604;10.078;2023-01-30T07:40:13;18.20;;;3.40;;
50102;SDS011;35993;52.604;10.078;2023-01-30T07:42:39;15.60;;;3.28;;
50102;SDS011;35993;52.604;10.078;2023-01-30T07:45:05;16.70;;;3.17;;
50102;SDS011;35993;52.604;10.078;2023-01-30T07:47:31;10.38;;;2.20;;
50102;SDS011;35993;52.604;10.078;2023-01-30T07:49:57;12.48;;;2.38;;
50102;SDS011;35993;52.604;10.078;2023-01-30T07:52:22;14.82;;;2.22;;
50102;SDS011;35993;52.604;10.078;2023-01-30T07:54:48;15.23;;;2.50;;
50102;SDS011;35993;52.604;10.078;2023-01-30T07:57:13;12.43;;;2.03;;
50102;SDS011;35993;52.604;10.078;2023-01-30T07:59:39;16.55;;;2.30;;
50102;SDS011;35993;52.604;10.078;2023-01-30T08:02:05;9.55;;;2.30;;
50102;SDS011;35993;52.604;10.078;2023-01-30T08:04:30;15.38;;;2.50;;
50102;SDS011;35993;52.604;10.078;2023-01-30T08:06:56;9.95;;;3.05;;
50102;SDS011;35993;52.604;10.078;2023-01-30T08:09:22;11.65;;;2.28;;
50102;SDS011;35993;52.604;10.078;2023-01-30T08:11:48;13.93;;;2.28;;
50102;SDS011;35993;52.604;10.078;2023-01-30T08:14:13;16.38;;;3.08;;
50102;SDS011;35993;52.604;10.078;2023-01-30T08:16:39;14.00;;;2.15;;
50102;SDS011;35993;52.604;10.078;2023-01-30T08:19:04;11.25;;;2.22;;
50102;SDS011;35993;52.604;10.078;2023-01-30T08:21:30;12.57;;;2.47;;
50102;SDS011;35993;52.604;10.078;2023-01-30T08:23:56;15.73;;;2.45;;
50102;SDS011;35993;52.604;10.078;2023-01-30T08:26:21;18.65;;;2.80;;
50102;SDS011;35993;52.604;10.078;2023-01-30T08:28:47;14.40;;;2.42;;
50102;SDS011;35993;52.604;10.078;2023-01-30T08:31:13;14.27;;;2.72;;
50102;SDS011;35993;52.604;10.078;2023-01-30T08:33:40;14.98;;;2.25;;
50102;SDS011;35993;52.604;10.078;2023-01-30T08:36:06;9.25;;;2.03;;
50102;SDS011;35993;52.604;10.078;2023-01-30T08:38:32;15.55;;;2.45;;
50102;SDS011;35993;52.604;10.078;2023-01-30T08:40:58;10.93;;;2.53;;
50102;SDS011;35993;52.604;10.078;2023-01-30T08:43:25;17.43;;;3.70;;
50102;SDS011;35993;52.604;10.078;2023-01-30T08:45:54;15.07;;;2.72;;
50102;SDS011;35993;52.604;10.078;2023-01-30T08:48:21;13.82;;;2.55;;
50102;SDS011;35993;52.604;10.078;2023-01-30T08:50:50;16.83;;;2.80;;
50102;SDS011;35993;52.604;10.078;2023-01-30T08:53:19;14.27;;;2.47;;
50102;SDS011;35993;52.604;10.078;2023-01-30T08:55:48;20.42;;;2.85;;
50102;SDS011;35993;52.604;10.078;2023-01-30T08:58:15;12.48;;;2.47;;
50102;SDS011;35993;52.604;10.078;2023-01-30T09:00:40;15.48;;;2.40;;
50102;SDS011;35993;52.604;10.078;2023-01-30T09:03:09;9.18;;;2.00;;
50102;SDS011;35993;52.604;10.078;2023-01-30T09:05:34;13.30;;;2.53;;
50102;SDS011;35993;52.604;10.078;2023-01-30T09:08:00;12.70;;;2.28;;
50102;SDS011;35993;52.604;10.078;2023-01-30T09:10:26;12.45;;;2.15;;
50102;SDS011;35993;52.604;10.078;2023-01-30T09:12:52;7.47;;;1.98;;
50102;SDS011;35993;52.604;10.078;2023-01-30T09:15:17;19.80;;;3.08;;
50102;SDS011;35993;52.604;10.078;2023-01-30T09:17:43;10.35;;;2.17;;
50102;SDS011;35993;52.604;10.078;2023-01-30T09:20:09;16.35;;;2.20;;
50102;SDS011;35993;52.604;10.078;2023-01-30T09:22:36;13.68;;;2.55;;
50102;SDS011;35993;52.604;10.078;2023-01-30T09:25:02;11.63;;;2.22;;
50102;SDS011;35993;52.604;10.078;2023-01-30T09:27:29;15.65;;;2.90;;
50102;SDS011;35993;52.604;10.078;2023-01-30T09:29:54;11.10;;;2.30;;
50102;SDS011;35993;52.604;10.078;2023-01-30T09:32:20;13.80;;;2.60;;
50102;SDS011;35993;52.604;10.078;2023-01-30T09:34:45;9.45;;;2.00;;
50102;SDS011;35993;52.604;10.078;2023-01-30T09:37:11;15.60;;;3.35;;
50102;SDS011;35993;52.604;10.078;2023-01-30T09:39:37;12.15;;;2.78;;
50102;SDS011;35993;52.604;10.078;2023-01-30T09:42:17;17.63;;;3.30;;
50102;SDS011;35993;52.604;10.078;2023-01-30T09:45:01;17.48;;;2.97;;
50102;SDS011;35993;52.604;10.078;2023-01-30T09:47:47;12.35;;;2.13;;
50102;SDS011;35993;52.604;10.078;2023-01-30T09:55:53;14.00;;;2.47;;
50102;SDS011;35993;52.604;10.078;2023-01-30T09:58:22;12.75;;;2.92;;
50102;SDS011;35993;52.604;10.078;2023-01-30T10:00:52;20.48;;;3.35;;
50102;SDS011;35993;52.604;10.078;2023-01-30T10:03:28;11.45;;;2.40;;
50102;SDS011;35993;52.604;10.078;2023-01-30T10:06:00;12.35;;;2.72;;
50102;SDS011;35993;52.604;10.078;2023-01-30T10:08:49;12.73;;;2.08;;
50102;SDS011;35993;52.604;10.078;2023-01-30T10:14:15;10.18;;;2.20;;
50102;SDS011;35993;52.604;10.078;2023-01-30T10:25:33;8.93;;;1.75;;
50102;SDS011;35993;52.604;10.078;2023-01-30T10:28:08;15.55;;;2.90;;
50102;SDS011;35993;52.604;10.078;2023-01-30T10:30:40;9.82;;;2.80;;
50102;SDS011;35993;52.604;10.078;2023-01-30T10:33:33;10.25;;;2.05;;
50102;SDS011;35993;52.604;10.078;2023-01-30T10:36:06;12.07;;;2.65;;
50102;SDS011;35993;52.604;10.078;2023-01-30T10:44:26;17.70;;;2.75;;
50102;SDS011;35993;52.604;10.078;2023-01-30T10:47:11;8.27;;;1.75;;
50102;SDS011;35993;52.604;10.078;2023-01-30T10:49:40;10.77;;;1.77;;
50102;SDS011;35993;52.604;10.078;2023-01-30T10:54:36;9.73;;;1.60;;
50102;SDS011;35993;52.604;10.078;2023-01-30T11:07:32;5.82;;;1.50;;
50102;SDS011;35993;52.604;10.078;2023-01-30T11:09:58;4.22;;;1.50;;
50102;SDS011;35993;52.604;10.078;2023-01-30T11:12:25;4.55;;;1.85;;
50102;SDS011;35993;52.604;10.078;2023-01-30T11:17:32;9.18;;;2.15;;
50102;SDS011;35993;52.604;10.078;2023-01-30T11:20:00;5.97;;;1.80;;
50102;SDS011;35993;52.604;10.078;2023-01-30T11:22:31;12.00;;;3.30;;
50102;SDS011;35993;52.604;10.078;2023-01-30T11:25:03;12.77;;;3.22;;
50102;SDS011;35993;52.604;10.078;2023-01-30T11:27:31;11.48;;;2.95;;
50102;SDS011;35993;52.604;10.078;2023-01-30T11:30:03;14.27;;;2.92;;
50102;SDS011;35993;52.604;10.078;2023-01-30T11:32:40;10.95;;;3.17;;
50102;SDS011;35993;52.604;10.078;2023-01-30T11:37:42;11.20;;;2.83;;
50102;SDS011;35993;52.604;10.078;2023-01-30T11:40:21;10.85;;;2.38;;
50102;SDS011;35993;52.604;10.078;2023-01-30T11:42:50;9.55;;;2.70;;
50102;SDS011;35993;52.604;10.078;2023-01-30T11:45:22;8.13;;;1.80;;
50102;SDS011;35993;52.604;10.078;2023-01-30T11:48:00;6.07;;;1.90;;
50102;SDS011;35993;52.604;10.078;2023-01-30T11:50:31;4.68;;;1.90;;
50102;SDS011;35993;52.604;10.078;2023-01-30T11:53:03;8.57;;;2.30;;
50102;SDS011;35993;52.604;10.078;2023-01-30T11:55:37;7.47;;;2.53;;
50102;SDS011;35993;52.604;10.078;2023-01-30T11:58:04;6.07;;;1.88;;
50102;SDS011;35993;52.604;10.078;2023-01-30T12:00:40;9.35;;;2.90;;
50102;SDS011;35993;52.604;10.078;2023-01-30T12:03:11;5.07;;;2.30;;
50102;SDS011;35993;52.604;10.078;2023-01-30T12:05:40;8.70;;;2.30;;
50102;SDS011;35993;52.604;10.078;2023-01-30T12:08:21;10.75;;;2.42;;
50102;SDS011;35993;52.604;10.078;2023-01-30T12:10:51;8.63;;;3.53;;
50102;SDS011;35993;52.604;10.078;2023-01-30T12:16:14;8.00;;;1.70;;
50102;SDS011;35993;52.604;10.078;2023-01-30T12:27:02;5.22;;;1.77;;
50102;SDS011;35993;52.604;10.078;2023-01-30T12:29:34;4.60;;;1.23;;
50102;SDS011;35993;52.604;10.078;2023-01-30T12:32:18;9.00;;;1.75;;
50102;SDS011;35993;52.604;10.078;2023-01-30T12:34:49;10.65;;;2.28;;
50102;SDS011;35993;52.604;10.078;2023-01-30T12:45:24;10.80;;;2.30;;
50102;SDS011;35993;52.604;10.078;2023-01-30T12:47:56;9.43;;;2.00;;
50102;SDS011;35993;52.604;10.078;2023-01-30T12:58:31;9.27;;;2.40;;
50102;SDS011;35993;52.604;10.078;2023-01-30T13:03:39;8.82;;;2.42;;
50102;SDS011;35993;52.604;10.078;2023-01-30T13:06:16;10.05;;;2.92;;
50102;SDS011;35993;52.604;10.078;2023-01-30T13:11:43;8.13;;;2.63;;
50102;SDS011;35993;52.604;10.078;2023-01-30T13:14:28;10.77;;;2.30;;
50102;SDS011;35993;52.604;10.078;2023-01-30T13:20:13;9.77;;;1.77;;
50102;SDS011;35993;52.604;10.078;2023-01-30T13:26:13;8.20;;;2.03;;
50102;SDS011;35993;52.604;10.078;2023-01-30T13:28:17;12.43;;;2.10;;
50102;SDS011;35993;52.604;10.078;2023-01-30T13:30:48;11.18;;;1.88;;
50102;SDS011;35993;52.604;10.078;2023-01-30T13:33:20;15.95;;;3.13;;
50102;SDS011;35993;52.604;10.078;2023-01-30T13:36:02;11.57;;;2.58;;
50102;SDS011;35993;52.604;10.078;2023-01-30T13:38:41;17.02;;;2.67;;
50102;SDS011;35993;52.604;10.078;2023-01-30T13:41:18;12.07;;;2.28;;
50102;SDS011;35993;52.604;10.078;2023-01-30T13:43:46;13.82;;;2.47;;
50102;SDS011;35993;52.604;10.078;2023-01-30T13:46:17;13.38;;;2.53;;
50102;SDS011;35993;52.604;10.078;2023-01-30T13:51:47;16.95;;;2.33;;
50102;SDS011;35993;52.604;10.078;2023-01-30T13:54:20;17.73;;;2.78;;
50102;SDS011;35993;52.604;10.078;2023-01-30T13:57:15;15.38;;;2.55;;
50102;SDS011;35993;52.604;10.078;2023-01-30T14:00:04;10.32;;;1.80;;
50102;SDS011;35993;52.604;10.078;2023-01-30T14:02:37;17.52;;;2.47;;
50102;SDS011;35993;52.604;10.078;2023-01-30T14:08:20;9.25;;;2.15;;
50102;SDS011;35993;52.604;10.078;2023-01-30T14:10:49;7.68;;;1.70;;
50102;SDS011;35993;52.604;10.078;2023-01-30T14:13:15;9.82;;;2.47;;
50102;SDS011;35993;52.604;10.078;2023-01-30T14:15:52;12.52;;;2.20;;
50102;SDS011;35993;52.604;10.078;2023-01-30T14:18:25;8.13;;;1.90;;
50102;SDS011;35993;52.604;10.078;2023-01-30T14:20:51;9.07;;;2.17;;
50102;SDS011;35993;52.604;10.078;2023-01-30T14:23:36;7.25;;;2.20;;
50102;SDS011;35993;52.604;10.078;2023-01-30T14:26:01;9.38;;;2.35;;
50102;SDS011;35993;52.604;10.078;2023-01-30T14:30:53;13.18;;;2.85;;
50102;SDS011;35993;52.604;10.078;2023-01-30T14:38:23;12.88;;;2.80;;
50102;SDS011;35993;52.604;10.078;2023-01-30T14:59:56;16.02;;;2.05;;
50102;SDS011;35993;52.604;10.078;2023-01-30T15:02:28;14.05;;;1.95;;
50102;SDS011;35993;52.604;10.078;2023-01-30T15:05:04;7.95;;;2.22;;
50102;SDS011;35993;52.604;10.078;2023-01-30T15:07:48;14.68;;;1.92;;
50102;SDS011;35993;52.604;10.078;2023-01-30T15:13:15;12.45;;;3.55;;
50102;SDS011;35993;52.604;10.078;2023-01-30T15:21:39;13.18;;;2.40;;
50102;SDS011;35993;52.604;10.078;2023-01-30T15:27:03;12.75;;;2.63;;
50102;SDS011;35993;52.604;10.078;2023-01-30T15:32:18;11.68;;;2.65;;
50102;SDS011;35993;52.604;10.078;2023-01-30T15:34:54;14.45;;;2.85;;
50102;SDS011;35993;52.604;10.078;2023-01-30T15:37:35;11.68;;;2.53;;
50102;SDS011;35993;52.604;10.078;2023-01-30T15:51:15;28.23;;;3.42;;
50102;SDS011;35993;52.604;10.078;2023-01-30T15:53:47;1999.90;;;357.83;;
50102;SDS011;35993;52.604;10.078;2023-01-30T15:56:17;1999.90;;;769.42;;
50102;SDS011;35993;52.604;10.078;2023-01-30T15:58:46;1999.90;;;650.35;;
50102;SDS011;35993;52.604;10.078;2023-01-30T16:01:16;1999.90;;;552.85;;
50102;SDS011;35993;52.604;10.078;2023-01-30T16:03:47;745.53;;;94.32;;
50102;SDS011;35993;52.604;10.078;2023-01-30T16:06:27;1999.90;;;671.33;;
50102;SDS011;35993;52.604;10.078;2023-01-30T16:09:00;1704.73;;;236.30;;
50102;SDS011;35993;52.604;10.078;2023-01-30T16:14:10;1999.90;;;330.00;;
50102;SDS011;35993;52.604;10.078;2023-01-30T16:16:39;1640.03;;;248.30;;
50102;SDS011;35993;52.604;10.078;2023-01-30T16:19:10;459.95;;;53.17;;
50102;SDS011;35993;52.604;10.078;2023-01-30T16:21:45;190.25;;;21.80;;
50102;SDS011;35993;52.604;10.078;2023-01-30T16:26:47;144.73;;;15.25;;
50102;SDS011;35993;52.604;10.078;2023-01-30T16:29:19;170.48;;;19.83;;
50102;SDS011;35993;52.604;10.078;2023-01-30T16:31:48;73.60;;;8.35;;
50102;SDS011;35993;52.604;10.078;2023-01-30T16:34:21;28.67;;;3.30;;
50102;SDS011;35993;52.604;10.078;2023-01-30T16:36:48;37.40;;;4.68;;
50102;SDS011;35993;52.604;10.078;2023-01-30T16:39:25;19.85;;;3.90;;
50102;SDS011;35993;52.604;10.078;2023-01-30T16:42:03;39.95;;;4.50;;
50102;SDS011;35993;52.604;10.078;2023-01-30T16:44:46;27.67;;;4.65;;
50102;SDS011;35993;52.604;10.078;2023-01-30T16:49:44;16.05;;;2.30;;
50102;SDS011;35993;52.604;10.078;2023-01-30T16:52:15;24.27;;;4.20;;
50102;SDS011;35993;52.604;10.078;2023-01-30T16:54:48;19.88;;;3.80;;
50102;SDS011;35993;52.604;10.078;2023-01-30T16:59:59;13.15;;;2.55;;
50102;SDS011;35993;52.604;10.078;2023-01-30T17:02:31;13.15;;;3.00;;
50102;SDS011;35993;52.604;10.078;2023-01-30T17:08:01;7.78;;;2.22;;
50102;SDS011;35993;52.604;10.078;2023-01-30T17:16:16;16.73;;;3.00;;
50102;SDS011;35993;52.604;10.078;2023-01-30T17:18:49;14.45;;;2.60;;
50102;SDS011;35993;52.604;10.078;2023-01-30T17:21:16;15.02;;;4.05;;
50102;SDS011;35993;52.604;10.078;2023-01-30T17:26:42;11.70;;;2.50;;
50102;SDS011;35993;52.604;10.078;2023-01-30T17:29:12;11.85;;;2.75;;
50102;SDS011;35993;52.604;10.078;2023-01-30T17:31:41;18.48;;;3.10;;
50102;SDS011;35993;52.604;10.078;2023-01-30T17:34:17;15.48;;;2.65;;
50102;SDS011;35993;52.604;10.078;2023-01-30T17:36:44;16.98;;;2.47;;
50102;SDS011;35993;52.604;10.078;2023-01-30T17:39:12;18.25;;;2.60;;
50102;SDS011;35993;52.604;10.078;2023-01-30T17:41:39;16.05;;;3.00;;
50102;SDS011;35993;52.604;10.078;2023-01-30T17:44:06;24.30;;;3.13;;